Time;durP1;ratioP1;P1;durP2;ratioP2;P2;SDS_P1;SDS_P2;PMS_P1;PMS_P2;Temp;Humidity;BMP_temperature;BMP_pressure;BME280_temperature;BME280_humidity;BME280_pressure;Samples;Min_cycle;Max_cycle;Signal;HPM_P1;HPM_P2
2023/10/11 00:00:44;;;;;;;12.10;7.10;;;;;;;2.74;64.27;100300.27;107179;1257;72800;-36
2023/10/11 00:03:32;;;;;;;15.00;7.90;;;;;;;2.69;64.10;100299.35;107233;1263;60536;-37
2023/10/11 00:06:04;;;;;;;16.60;7.50;;;;;;;2.65;64.23;100299.99;107229;1263;60522;-37
2023/10/11 00:08:39;;;;;;;16.80;7.50;;;;;;;2.59;64.34;100300.84;107054;1258;73862;-36
2023/10/11 00:11:07;;;;;;;14.20;8.50;;;;;;;2.53;64.27;100301.38;107234;1261;67904;-37
2023/10/11 00:13:36;;;;;;;16.50;8.60;;;;;;;2.46;64.29;100299.90;107226;1263;72828;-37
2023/10/11 00:16:16;;;;;;;10.90;6.00;;;;;;;2.37;64.64;100306.52;107209;1260;60332;-37
2023/10/11 00:18:44;;;;;;;14.00;7.60;;;;;;;2.27;65.06;100304.90;107215;1257;59679;-37
2023/10/11 00:21:18;;;;;;;13.20;7.80;;;;;;;2.21;65.52;100299.98;107281;1257;72564;-36
2023/10/11 00:23:48;;;;;;;13.20;7.80;;;;;;;2.26;65.53;100301.54;107292;1257;66310;-36
2023/10/11 00:26:18;;;;;;;14.00;8.00;;;;;;;2.36;65.30;100304.87;107290;1257;70710;-37
2023/10/11 00:28:52;;;;;;;13.60;7.50;;;;;;;2.41;65.35;100305.27;107198;1257;60414;-37
2023/10/11 00:31:19;;;;;;;15.70;8.20;;;;;;;2.41;65.29;100304.40;107193;1257;60306;-37
2023/10/11 00:33:47;;;;;;;14.10;8.40;;;;;;;2.42;65.48;100307.66;107199;1257;73914;-37
2023/10/11 00:36:16;;;;;;;17.00;8.30;;;;;;;2.42;65.36;100309.70;106912;1257;171343;-37
2023/10/11 00:39:35;;;;;;;18.30;8.40;;;;;;;2.40;65.83;100308.09;104211;1291;600981;-36
2023/10/11 00:42:03;;;;;;;16.30;9.10;;;;;;;2.39;65.84;100311.42;106621;1265;59240;-36
2023/10/11 00:44:32;;;;;;;17.40;9.20;;;;;;;2.35;65.55;100313.61;106681;1268;60031;-36
2023/10/11 00:47:01;;;;;;;17.30;10.10;;;;;;;2.32;65.53;100308.50;106683;1270;72219;-36
2023/10/11 00:49:36;;;;;;;18.50;9.60;;;;;;;2.29;65.57;100309.54;105118;1267;1003722;-36
2023/10/11 00:52:06;;;;;;;18.40;8.70;;;;;;;2.26;65.42;100312.67;106648;1267;143992;-37
2023/10/11 00:54:38;;;;;;;14.90;8.70;;;;;;;2.23;65.28;100309.65;106769;1264;59251;-36
2023/10/11 00:57:05;;;;;;;15.00;8.90;;;;;;;2.20;65.23;100312.51;106868;1263;59252;-36
2023/10/11 00:59:34;;;;;;;17.60;8.80;;;;;;;2.17;65.16;100314.19;106868;1263;72226;-36
2023/10/11 01:02:01;;;;;;;15.40;9.00;;;;;;;2.13;65.14;100319.99;106836;1264;66321;-36
2023/10/11 01:04:38;;;;;;;16.70;9.00;;;;;;;2.12;65.04;100322.73;106828;1263;72647;-36
2023/10/11 01:07:08;;;;;;;16.40;8.90;;;;;;;2.18;65.04;100323.48;106800;1266;60890;-37
2023/10/11 01:09:37;;;;;;;16.40;9.40;;;;;;;2.27;64.73;100319.66;106831;1262;60013;-36
2023/10/11 01:12:05;;;;;;;17.40;9.40;;;;;;;2.29;64.71;100317.72;107364;1262;73021;-36
2023/10/11 01:14:45;;;;;;;17.40;9.30;;;;;;;2.28;64.62;100317.46;106841;1264;66672;-37
2023/10/11 01:17:12;;;;;;;17.60;9.30;;;;;;;2.30;64.47;100319.21;106818;1264;72689;-37
2023/10/11 01:19:40;;;;;;;16.60;9.90;;;;;;;2.28;64.28;100326.55;106871;1262;59764;-37
2023/10/11 01:22:09;;;;;;;18.40;9.80;;;;;;;2.27;64.13;100328.39;106850;1262;60047;-37
2023/10/11 01:24:38;;;;;;;12.30;7.30;;;;;;;2.26;64.27;100327.70;106753;1262;71963;-37
2023/10/11 01:27:05;;;;;;;16.30;8.90;;;;;;;2.24;64.39;100330.19;103853;1263;1003597;-37
2023/10/11 01:29:33;;;;;;;18.60;10.20;;;;;;;2.21;64.33;100327.86;106843;1269;73150;-37
2023/10/11 01:32:01;;;;;;;17.10;10.40;;;;;;;2.18;64.34;100332.11;106790;1263;59590;-37
2023/10/11 01:34:30;;;;;;;23.60;10.80;;;;;;;2.16;64.29;100333.84;106839;1267;59599;-36
2023/10/11 01:37:02;;;;;;;19.60;9.70;;;;;;;2.13;64.34;100331.66;106761;1262;73086;-37
2023/10/11 01:39:32;;;;;;;21.10;10.90;;;;;;;2.10;64.20;100326.81;106629;1264;66632;-37
2023/10/11 01:42:01;;;;;;;17.00;10.00;;;;;;;2.07;64.33;100331.92;106658;1263;72747;-37
2023/10/11 01:44:31;;;;;;;19.70;11.30;;;;;;;2.03;64.37;100334.52;106653;1266;59672;-37
2023/10/11 01:47:00;;;;;;;18.20;10.00;;;;;;;2.00;64.36;100329.98;106646;1264;60114;-37
2023/10/11 01:49:27;;;;;;;18.50;9.70;;;;;;;1.97;64.46;100331.20;106618;1263;71795;-37
2023/10/11 01:51:55;;;;;;;18.00;10.70;;;;;;;1.94;64.43;100334.79;106650;1264;66460;-37
2023/10/11 01:54:24;;;;;;;17.30;10.50;;;;;;;1.91;64.34;100337.55;105913;1266;1002950;-37
2023/10/11 01:56:52;;;;;;;18.10;9.80;;;;;;;1.90;64.49;100335.47;106692;1264;60050;-37
2023/10/11 01:59:20;;;;;;;16.80;9.50;;;;;;;1.95;64.50;100338.27;106668;1264;60119;-37
2023/10/11 02:01:58;;;;;;;17.90;9.90;;;;;;;2.03;64.24;100339.38;106653;1263;71802;-37
2023/10/11 02:04:28;;;;;;;16.30;9.70;;;;;;;2.07;64.47;100348.47;106698;1264;67869;-37
2023/10/11 02:06:59;;;;;;;16.60;9.10;;;;;;;2.08;64.27;100350.39;106738;1266;71477;-37
2023/10/11 02:09:27;;;;;;;18.60;9.30;;;;;;;2.06;64.42;100351.99;106775;1264;59506;-37
2023/10/11 02:11:55;;;;;;;17.90;9.70;;;;;;;2.05;64.66;100357.08;106694;1270;60199;-37
2023/10/11 02:14:24;;;;;;;17.50;10.40;;;;;;;2.04;64.76;100354.29;106721;1263;73051;-37
2023/10/11 02:16:55;;;;;;;18.40;9.30;;;;;;;2.03;64.86;100363.08;106750;1264;67584;-37
2023/10/11 02:19:24;;;;;;;16.60;9.80;;;;;;;2.01;64.91;100360.85;106726;1264;72714;-37
2023/10/11 02:21:55;;;;;;;16.60;9.10;;;;;;;1.98;65.52;100360.35;106709;1267;59720;-37
2023/10/11 02:24:25;;;;;;;20.70;10.10;;;;;;;1.96;65.48;100358.43;106761;1264;60094;-37
2023/10/11 02:26:54;;;;;;;17.00;9.50;;;;;;;1.92;65.59;100357.44;106847;1260;73044;-37
2023/10/11 02:29:25;;;;;;;16.50;9.50;;;;;;;1.88;65.56;100364.31;106885;1262;66662;-37
2023/10/11 02:31:55;;;;;;;15.80;9.80;;;;;;;1.86;65.50;100365.77;106877;1262;72809;-37
2023/10/11 02:34:23;;;;;;;12.60;6.20;;;;;;;1.83;65.31;100370.06;106943;1263;59593;-36
2023/10/11 02:37:02;;;;;;;16.70;8.80;;;;;;;1.79;65.24;100371.97;106893;1263;60133;-36
2023/10/11 02:39:42;;;;;;;13.00;8.10;;;;;;;1.75;65.57;100375.02;107035;1260;73085;-35
2023/10/11 02:42:10;;;;;;;16.00;8.60;;;;;;;1.78;65.55;100374.59;106875;1260;67694;-36
2023/10/11 02:44:39;;;;;;;14.30;8.60;;;;;;;1.83;65.40;100377.52;106964;1260;72499;-36
2023/10/11 02:47:09;;;;;;;14.40;8.60;;;;;;;1.84;65.56;100377.54;107033;1266;59579;-36
2023/10/11 02:49:37;;;;;;;14.90;7.90;;;;;;;1.83;65.78;100371.67;107064;1260;59601;-35
2023/10/11 02:52:08;;;;;;;13.80;8.50;;;;;;;1.84;65.83;100372.89;106153;1260;1003743;-37
2023/10/11 02:54:39;;;;;;;18.30;9.50;;;;;;;1.85;65.83;100375.98;106882;1260;67599;-36
2023/10/11 02:57:27;;;;;;;16.00;8.40;;;;;;;1.84;65.54;100377.25;107018;1260;72719;-36
2023/10/11 02:59:56;;;;;;;15.10;8.60;;;;;;;1.85;65.48;100378.65;107033;1260;59516;-36
2023/10/11 03:02:29;;;;;;;;;;;;;;;1.83;65.13;100377.50;106574;1257;1003801;-37
2023/10/11 03:05:01;;;;;;;14.90;7.90;;;;;;;1.81;65.00;100377.62;107075;1257;71773;-36
2023/10/11 03:07:33;;;;;;;16.80;8.50;;;;;;;1.76;65.17;100376.99;107231;1257;66679;-37
2023/10/11 03:10:03;;;;;;;15.40;8.10;;;;;;;1.74;65.20;100376.10;107268;1257;71369;-37
2023/10/11 03:12:31;;;;;;;11.20;6.20;;;;;;;1.73;65.42;100378.95;107260;1257;59652;-36
2023/10/11 03:15:09;;;;;;;16.30;8.80;;;;;;;1.71;65.26;100377.23;107316;1257;59603;-37
2023/10/11 03:17:41;;;;;;;15.60;8.60;;;;;;;1.70;65.26;100374.45;107353;1256;73035;-37
2023/10/11 03:20:30;;;;;;;14.90;8.80;;;;;;;1.69;65.33;100375.13;107363;1257;66768;-37
2023/10/11 03:23:04;;;;;;;15.40;8.30;;;;;;;1.68;65.79;100380.04;107272;1256;71327;-37
2023/10/11 03:25:34;;;;;;;14.80;8.70;;;;;;;1.73;65.55;100377.28;106481;1257;1003645;-37
2023/10/11 03:28:03;;;;;;;15.50;7.90;;;;;;;1.81;65.58;100380.25;107277;1257;60067;-37
2023/10/11 03:30:35;;;;;;;16.50;8.60;;;;;;;1.82;65.44;100385.20;107361;1256;71712;-37
2023/10/11 03:33:06;;;;;;;19.60;9.10;;;;;;;1.83;65.57;100385.10;107320;1257;66636;-37
2023/10/11 03:35:38;;;;;;;14.80;8.60;;;;;;;1.84;65.47;100387.42;107244;1257;71391;-37
2023/10/11 03:38:17;;;;;;;14.40;8.30;;;;;;;1.86;65.54;100385.06;107248;1257;59486;-37
2023/10/11 03:41:11;;;;;;;15.90;8.20;;;;;;;1.87;65.46;100382.34;107260;1257;60003;-37
2023/10/11 03:43:40;;;;;;;17.60;8.50;;;;;;;1.87;65.42;100382.13;107240;1257;72038;-37
2023/10/11 03:46:10;;;;;;;14.80;8.30;;;;;;;1.86;65.47;100375.77;107254;1257;67902;-37
2023/10/11 03:48:44;;;;;;;16.30;8.60;;;;;;;1.84;65.59;100376.35;107210;1257;72690;-37
2023/10/11 03:51:12;;;;;;;14.60;8.10;;;;;;;1.83;65.31;100374.56;107099;1262;59647;-37
2023/10/11 03:53:40;;;;;;;18.20;9.60;;;;;;;1.81;65.27;100376.55;107214;1257;59667;-37
2023/10/11 03:56:07;;;;;;;16.50;8.40;;;;;;;1.78;65.27;100380.25;107202;1257;72811;-37
2023/10/11 03:58:37;;;;;;;17.40;9.20;;;;;;;1.76;65.22;100382.55;107236;1257;66283;-37
2023/10/11 04:01:36;;;;;;;19.90;8.70;;;;;;;1.74;65.10;100382.20;107209;1257;73102;-37
2023/10/11 04:03:53;;;;;;;17.50;8.90;;;;;;;1.76;64.84;100387.48;107181;1258;59719;-37
2023/10/11 04:06:22;;;;;;;17.90;9.10;;;;;;;1.82;64.59;100384.14;107212;1257;60014;-37
2023/10/11 04:08:55;;;;;;;16.20;9.20;;;;;;;1.85;64.57;100384.16;107206;1257;73022;-37
2023/10/11 04:11:54;;;;;;;18.30;8.60;;;;;;;1.86;64.58;100382.88;107230;1261;67897;-37
2023/10/11 04:14:39;;;;;;;17.90;8.80;;;;;;;1.88;64.54;100388.70;107257;1257;71689;-37
2023/10/11 04:17:14;;;;;;;15.40;9.10;;;;;;;1.88;64.20;100390.57;107198;1257;59520;-36
2023/10/11 04:19:43;;;;;;;15.10;9.30;;;;;;;1.84;64.39;100392.40;107242;1257;60114;-37
2023/10/11 04:22:17;;;;;;;14.80;8.40;;;;;;;1.82;64.45;100391.98;107203;1257;73101;-36
2023/10/11 04:24:45;;;;;;;21.20;10.10;;;;;;;1.79;64.65;100397.58;107193;1261;66719;-37
2023/10/11 04:29:51;;;;;;;17.10;10.00;;;;;;;1.73;65.05;100394.23;107203;1258;59730;-37
2023/10/11 04:32:41;;;;;;;22.40;11.20;;;;;;;1.72;65.02;100389.38;107257;1257;59467;-37
2023/10/11 04:38:15;;;;;;;15.60;9.90;;;;;;;1.66;65.29;100398.38;106759;1268;67612;-37
2023/10/11 04:40:49;;;;;;;17.30;9.50;;;;;;;1.63;65.43;100401.29;106786;1263;71440;-37
2023/10/11 04:43:20;;;;;;;17.60;10.20;;;;;;;1.67;65.45;100401.37;107028;1259;59855;-37
2023/10/11 04:45:50;;;;;;;19.00;10.10;;;;;;;1.76;65.35;100399.09;107238;1257;60053;-37
2023/10/11 04:48:29;;;;;;;17.60;9.80;;;;;;;1.81;65.51;100402.31;106494;1257;1003583;-36
2023/10/11 04:51:04;;;;;;;18.00;10.00;;;;;;;1.85;65.33;100404.32;107244;1257;67569;-37
2023/10/11 04:53:34;;;;;;;17.80;9.80;;;;;;;1.87;65.14;100398.86;107204;1257;72691;-36
2023/10/11 04:56:51;;;;;;;17.60;9.70;;;;;;;1.89;65.04;100401.59;107172;1261;60335;-37
2023/10/11 04:58:54;;;;;;;18.70;9.50;;;;;;;1.90;65.09;100400.02;107244;1257;60357;-37
2023/10/11 05:01:22;;;;;;;18.70;9.50;;;;;;;1.90;65.08;100400.07;107228;1259;73889;-37
2023/10/11 05:03:59;;;;;;;18.90;10.40;;;;;;;1.91;65.21;100400.44;107246;1257;66818;-36
2023/10/11 05:06:39;;;;;;;17.20;9.90;;;;;;;1.91;65.35;100406.64;107221;1257;72711;-37
2023/10/11 05:11:46;;;;;;;21.20;10.40;;;;;;;1.88;65.22;100413.68;107223;1257;60434;-36
2023/10/11 05:14:29;;;;;;;17.80;9.70;;;;;;;1.85;65.37;100410.95;107271;1257;73858;-37
2023/10/11 05:17:16;;;;;;;19.90;10.30;;;;;;;1.82;65.54;100409.96;107235;1257;67898;-37
2023/10/11 05:19:46;;;;;;;19.10;10.30;;;;;;;1.77;65.79;100410.03;107224;1257;72681;-37
2023/10/11 05:22:29;;;;;;;19.50;11.10;;;;;;;1.82;65.83;100414.08;107271;1257;60912;-36
2023/10/11 05:32:33;;;;;;;38.70;13.20;;;;;;;2.02;66.49;100413.32;107228;1257;72773;-36
2023/10/11 05:51:47;;;;;;;20.10;10.70;;;;;;;2.27;68.18;100408.81;107294;1256;60373;-37
2023/10/11 05:54:16;;;;;;;21.00;12.00;;;;;;;2.40;68.10;100411.66;107326;1257;71802;-37
2023/10/11 05:56:47;;;;;;;24.20;11.70;;;;;;;2.46;68.48;100415.25;107309;1257;67911;-37
2023/10/11 05:59:15;;;;;;;21.30;12.60;;;;;;;2.52;68.47;100415.41;107242;1258;72731;-37
2023/10/11 06:01:47;;;;;;;21.70;11.80;;;;;;;2.62;68.85;100416.84;107263;1257;60322;-37
2023/10/11 06:04:16;;;;;;;23.30;12.30;;;;;;;2.75;68.84;100418.55;107294;1257;60613;-37
2023/10/11 06:06:47;;;;;;;23.70;13.00;;;;;;;2.84;68.79;100418.40;107282;1257;72882;-37
2023/10/11 06:09:17;;;;;;;22.40;13.00;;;;;;;2.92;68.88;100423.64;107304;1257;67882;-37
2023/10/11 06:11:50;;;;;;;25.00;12.20;;;;;;;3.00;69.00;100424.25;107286;1256;72663;-37
2023/10/11 06:14:18;;;;;;;22.00;12.00;;;;;;;3.15;68.87;100430.59;107293;1257;60546;-37
2023/10/11 06:16:57;;;;;;;23.80;11.70;;;;;;;3.32;68.85;100434.15;107263;1256;60415;-37
2023/10/11 06:19:26;;;;;;;21.10;11.00;;;;;;;3.44;68.93;100435.52;107275;1257;72821;-37
2023/10/11 06:21:58;;;;;;;21.20;12.20;;;;;;;3.54;68.91;100436.05;107267;1257;67691;-37
2023/10/11 06:24:30;;;;;;;22.60;12.00;;;;;;;3.66;69.13;100435.52;107307;1258;72654;-37
2023/10/11 06:28:09;;;;;;;22.10;11.80;;;;;;;3.79;69.10;100438.05;107275;1257;60505;-37
2023/10/11 06:29:59;;;;;;;23.80;13.10;;;;;;;3.91;68.93;100438.05;107338;1257;60405;-37
2023/10/11 06:32:29;;;;;;;24.20;12.80;;;;;;;4.00;68.86;100441.63;107310;1259;72533;-37
2023/10/11 06:34:56;;;;;;;25.40;11.90;;;;;;;4.10;68.86;100439.56;107307;1257;67590;-37
2023/10/11 06:37:24;;;;;;;22.00;10.60;;;;;;;4.25;68.74;100440.14;107289;1257;71484;-37
2023/10/11 06:42:23;;;;;;;23.20;11.60;;;;;;;4.54;67.86;100438.80;107321;1254;60508;-37
2023/10/11 06:44:57;;;;;;;21.20;10.90;;;;;;;4.65;67.51;100435.55;107288;1257;73840;-37
2023/10/11 06:47:35;;;;;;;21.60;10.60;;;;;;;4.76;67.55;100438.00;105776;1258;1003368;-37
2023/10/11 06:50:13;;;;;;;22.20;10.40;;;;;;;4.91;67.36;100442.91;107341;1257;72994;-37
2023/10/11 06:52:45;;;;;;;18.80;10.00;;;;;;;5.04;67.17;100440.74;107302;1257;60466;-37
2023/10/11 06:55:14;;;;;;;19.30;10.50;;;;;;;5.16;66.63;100441.39;106558;1256;1002506;-37
2023/10/11 06:57:54;;;;;;;20.20;10.20;;;;;;;5.26;66.26;100445.17;107310;1257;74012;-37
2023/10/11 07:00:37;;;;;;;18.50;9.10;;;;;;;5.37;65.72;100450.22;105104;1260;1015536;-37
2023/10/11 07:06:00;;;;;;;17.40;9.90;;;;;;;5.75;64.26;100452.11;107327;1257;60392;-38
2023/10/11 07:08:35;;;;;;;18.60;9.00;;;;;;;5.87;63.80;100448.70;107350;1261;60277;-37
2023/10/11 07:11:10;;;;;;;16.20;8.90;;;;;;;5.98;64.05;100450.09;107278;1256;73929;-37
2023/10/11 07:16:31;;;;;;;24.00;8.30;;;;;;;6.26;63.59;100453.10;107322;1258;72704;-36
2023/10/11 07:18:59;;;;;;;15.20;7.20;;;;;;;6.37;62.84;100446.70;107262;1258;60319;-36
2023/10/11 07:27:09;;;;;;;13.10;7.30;;;;;;;6.73;61.24;100447.57;107307;1257;67559;-36
2023/10/11 07:29:44;;;;;;;11.60;6.60;;;;;;;6.85;60.79;100448.39;107293;1258;72667;-36
2023/10/11 07:32:18;;;;;;;15.50;7.80;;;;;;;6.96;60.57;100441.70;107231;1255;60388;-37
2023/10/11 07:34:54;;;;;;;18.10;7.90;;;;;;;7.11;59.51;100445.08;107282;1258;60372;-37
2023/10/11 07:37:26;;;;;;;13.20;7.50;;;;;;;7.22;59.60;100444.39;107328;1257;72649;-37
2023/10/11 07:40:00;;;;;;;11.40;6.90;;;;;;;7.34;59.19;100439.17;107332;1260;67911;-37
2023/10/11 07:42:36;;;;;;;10.90;5.80;;;;;;;7.47;58.42;100438.05;107293;1260;72668;-37
2023/10/11 07:45:12;;;;;;;11.60;6.20;;;;;;;7.61;57.49;100439.34;107340;1257;60610;-37
2023/10/11 07:47:48;;;;;;;11.50;5.70;;;;;;;7.74;57.08;100434.86;107313;1256;60354;-37
2023/10/11 07:50:22;;;;;;;8.20;5.20;;;;;;;7.89;56.99;100439.40;107270;1257;73895;-37
2023/10/11 07:52:51;;;;;;;8.90;5.60;;;;;;;8.02;56.68;100441.34;107292;1255;67604;-37
2023/10/11 07:55:19;;;;;;;10.80;5.50;;;;;;;8.14;55.35;100441.77;107279;1258;71958;-37
2023/10/11 07:57:47;;;;;;;7.50;5.40;;;;;;;8.27;55.72;100430.58;107242;1257;60529;-37
2023/10/11 08:00:18;;;;;;;11.70;6.00;;;;;;;8.40;55.59;100432.27;107273;1257;60374;-37
2023/10/11 08:02:56;;;;;;;9.40;5.10;;;;;;;8.54;54.99;100434.93;107308;1257;72977;-37
2023/10/11 08:05:25;;;;;;;7.50;5.10;;;;;;;8.68;54.32;100432.15;107315;1257;67918;-37
2023/10/11 08:07:55;;;;;;;8.40;5.10;;;;;;;8.81;53.51;100427.49;107254;1258;71534;-38
2023/10/11 08:10:29;;;;;;;10.60;5.10;;;;;;;8.92;53.19;100430.10;107341;1257;60468;-38
2023/10/11 08:12:57;;;;;;;8.90;5.10;;;;;;;9.05;52.76;100423.51;107271;1263;60329;-37
2023/10/11 08:15:25;;;;;;;10.00;5.80;;;;;;;9.15;52.66;100416.38;107274;1256;73888;-37
2023/10/11 08:17:53;;;;;;;8.60;5.20;;;;;;;9.25;52.57;100415.61;107291;1258;68641;-38
2023/10/11 08:20:27;;;;;;;7.50;4.70;;;;;;;9.36;52.05;100417.53;107280;1260;72644;-36
2023/10/11 08:22:56;;;;;;;7.80;4.50;;;;;;;9.48;51.52;100419.45;107260;1260;60444;-36
2023/10/11 08:25:29;;;;;;;7.00;4.00;;;;;;;9.56;51.69;100413.00;107284;1258;60505;-36
2023/10/11 08:28:19;;;;;;;7.70;4.50;;;;;;;9.68;51.67;100414.02;107253;1257;73885;-37
2023/10/11 08:30:47;;;;;;;8.60;5.00;;;;;;;9.84;51.26;100415.63;107261;1258;67551;-37
2023/10/11 08:33:15;;;;;;;8.00;4.80;;;;;;;9.95;50.81;100412.04;107224;1260;72733;-36
2023/10/11 08:35:46;;;;;;;6.40;4.00;;;;;;;10.06;50.94;100407.63;107341;1258;60395;-36
2023/10/11 08:38:18;;;;;;;8.60;5.10;;;;;;;10.17;50.45;100410.46;107339;1260;60300;-37
2023/10/11 08:40:58;;;;;;;8.90;4.50;;;;;;;10.28;50.06;100406.88;107288;1257;73852;-36
2023/10/11 08:43:26;;;;;;;7.20;4.70;;;;;;;10.41;50.14;100407.65;107663;1257;67572;-36
2023/10/11 08:46:00;;;;;;;8.70;4.50;;;;;;;10.53;49.55;100405.67;107554;1251;72617;-36
2023/10/11 08:48:29;;;;;;;7.30;4.20;;;;;;;10.63;49.18;100405.70;107652;1254;60495;-37
2023/10/11 08:50:57;;;;;;;6.10;3.60;;;;;;;10.72;49.45;100404.48;107735;1251;60514;-37
2023/10/11 08:53:24;;;;;;;5.00;3.20;;;;;;;10.82;48.22;100401.52;107676;1251;72570;-37
2023/10/11 08:56:02;;;;;;;8.20;3.60;;;;;;;10.90;47.59;100396.07;107725;1251;66756;-37
2023/10/11 08:58:30;;;;;;;5.10;3.10;;;;;;;10.99;46.80;100397.83;107662;1254;74865;-36
2023/10/11 09:00:59;;;;;;;6.20;2.30;;;;;;;11.05;46.67;100399.04;107629;1257;60440;-37
2023/10/11 09:03:39;;;;;;;4.50;2.80;;;;;;;11.11;46.29;100393.27;107635;1251;60095;-37
2023/10/11 09:06:21;;;;;;;3.50;2.30;;;;;;;11.22;45.41;100398.98;107665;1256;73999;-37
2023/10/11 09:08:51;;;;;;;6.10;2.80;;;;;;;11.37;44.73;100392.25;107714;1259;66272;-36
2023/10/11 09:11:32;;;;;;;23.30;4.00;;;;;;;11.49;43.21;100393.97;107683;1254;72676;-36
2023/10/11 09:14:22;;;;;;;5.60;2.70;;;;;;;11.64;41.90;100390.54;107724;1254;60418;-36
2023/10/11 09:16:51;;;;;;;8.50;2.70;;;;;;;11.72;41.97;100384.15;107745;1257;60492;-36
2023/10/11 09:19:22;;;;;;;4.30;2.80;;;;;;;11.81;41.80;100391.39;107769;1251;72591;-36
2023/10/11 09:22:03;;;;;;;5.40;2.70;;;;;;;11.89;41.05;100381.40;107708;1253;66623;-36
2023/10/11 09:24:38;;;;;;;4.60;2.60;;;;;;;12.00;40.11;100380.64;107714;1251;71489;-35
2023/10/11 09:29:47;;;;;;;4.60;2.50;;;;;;;12.15;39.17;100373.32;107645;1251;60575;-36
2023/10/11 09:32:27;;;;;;;6.60;3.00;;;;;;;12.21;39.08;100369.60;107761;1251;72584;-37
2023/10/11 09:34:56;;;;;;;5.70;2.60;;;;;;;12.31;39.07;100360.77;107698;1251;68286;-37
2023/10/11 09:37:24;;;;;;;5.40;2.90;;;;;;;12.39;39.03;100354.95;107682;1255;72694;-37
2023/10/11 09:40:01;;;;;;;5.30;2.80;;;;;;;12.50;38.01;100349.90;107620;1257;60556;-36
2023/10/11 09:42:29;;;;;;;6.70;3.20;;;;;;;12.58;37.93;100350.88;107725;1254;62108;-36
2023/10/11 09:44:58;;;;;;;6.70;3.00;;;;;;;12.63;37.48;100342.38;107595;1257;74236;-37
2023/10/11 09:47:31;;;;;;;5.60;2.40;;;;;;;12.67;37.83;100333.55;107441;1259;66735;-37
2023/10/11 09:50:00;;;;;;;6.70;2.80;;;;;;;12.73;37.30;100333.09;107666;1254;71532;-37
2023/10/11 09:52:31;;;;;;;4.70;2.80;;;;;;;12.77;37.12;100334.27;107676;1257;60412;-37
2023/10/11 09:54:59;;;;;;;4.90;2.50;;;;;;;12.78;37.46;100328.54;107451;1259;60378;-36
2023/10/11 09:57:26;;;;;;;5.00;2.80;;;;;;;12.81;37.44;100328.39;107718;1255;74193;-37
2023/10/11 10:00:11;;;;;;;5.70;2.70;;;;;;;12.89;37.26;100317.21;107661;1256;67938;-37
2023/10/11 10:02:44;;;;;;;4.90;2.60;;;;;;;13.00;37.12;100316.73;107625;1257;72668;-37
2023/10/11 10:05:13;;;;;;;8.90;2.50;;;;;;;13.11;36.50;100307.13;107655;1254;60093;-37
2023/10/11 10:07:44;;;;;;;5.10;2.50;;;;;;;13.20;36.63;100303.23;107638;1254;61307;-37
2023/10/11 10:10:16;;;;;;;6.00;2.10;;;;;;;13.33;36.17;100300.64;107671;1257;73250;-37
2023/10/11 10:12:56;;;;;;;5.20;2.20;;;;;;;13.47;35.72;100307.27;107741;1257;67980;-37
2023/10/11 10:15:32;;;;;;;4.90;2.40;;;;;;;13.62;34.93;100304.79;107611;1257;72730;-37
2023/10/11 10:18:13;;;;;;;46.70;6.00;;;;;;;13.69;34.18;100301.59;107714;1257;60360;-37
2023/10/11 10:20:41;;;;;;;6.50;2.60;;;;;;;13.71;34.80;100298.85;107660;1257;61042;-37
2023/10/11 10:23:15;;;;;;;4.10;2.40;;;;;;;13.78;34.38;100296.65;107635;1257;73907;-37
2023/10/11 10:25:47;;;;;;;4.80;2.10;;;;;;;13.88;34.35;100292.18;107634;1256;68022;-37
2023/10/11 10:31:04;;;;;;;4.60;2.20;;;;;;;14.06;33.61;100267.86;107602;1254;60074;-37
2023/10/11 10:33:35;;;;;;;5.70;2.70;;;;;;;14.08;33.10;100263.69;107711;1254;60064;-37
2023/10/11 10:36:21;;;;;;;4.70;2.10;;;;;;;14.07;33.07;100261.41;107545;1253;73866;-37
2023/10/11 10:39:46;;;;;;;5.90;3.10;;;;;;;14.11;33.18;100248.48;107617;1254;67604;-36
2023/10/11 10:42:12;;;;;;;5.00;2.50;;;;;;;14.23;32.52;100254.06;107523;1256;71581;-37
2023/10/11 10:44:54;;;;;;;4.20;2.20;;;;;;;14.27;32.53;100247.67;107650;1253;60457;-37
2023/10/11 10:47:28;;;;;;;3.90;2.70;;;;;;;14.30;32.18;100241.48;107632;1257;60293;-37
2023/10/11 10:49:56;;;;;;;6.30;2.70;;;;;;;14.32;32.09;100241.54;107710;1257;72960;-37
2023/10/11 10:52:26;;;;;;;9.10;2.70;;;;;;;14.37;32.26;100242.64;107647;1254;68938;-36
2023/10/11 10:54:56;;;;;;;9.90;3.20;;;;;;;14.42;32.18;100233.78;107676;1257;72652;-36
2023/10/11 10:57:24;;;;;;;;;;;;;;;14.44;31.95;100244.33;107659;1256;60235;-36
2023/10/11 10:59:52;;;;;;;10.20;3.10;;;;;;;14.41;31.85;100238.67;107700;1253;60421;-37
2023/10/11 11:02:21;;;;;;;14.80;3.20;;;;;;;14.39;31.55;100234.18;107615;1255;73911;-37
2023/10/11 11:04:49;;;;;;;8.00;2.50;;;;;;;14.41;31.54;100229.31;107659;1256;67608;-36
2023/10/11 11:07:24;;;;;;;11.00;3.30;;;;;;;14.45;31.58;100227.36;107685;1255;72666;-37
2023/10/11 11:09:55;;;;;;;14.60;4.10;;;;;;;14.53;32.03;100227.42;107635;1253;60385;-37
2023/10/11 11:12:29;;;;;;;12.80;4.00;;;;;;;14.65;31.62;100225.61;107682;1254;60421;-36
2023/10/11 11:14:58;;;;;;;14.60;3.60;;;;;;;14.73;31.22;100224.71;107634;1257;73877;-37
2023/10/11 11:17:50;;;;;;;18.90;4.40;;;;;;;14.74;31.08;100221.38;107677;1254;68352;-37
2023/10/11 11:22:52;;;;;;;18.20;4.60;;;;;;;14.57;31.38;100236.62;107704;1255;60597;-37
2023/10/11 11:28:24;;;;;;;26.70;4.70;;;;;;;14.69;31.88;100232.90;107555;1258;73866;-36
2023/10/11 11:31:03;;;;;;;24.50;5.10;;;;;;;14.90;31.41;100227.48;107530;1254;67631;-36
2023/10/11 11:33:35;;;;;;;19.80;4.30;;;;;;;15.04;31.07;100228.85;107536;1254;72780;-37
2023/10/11 11:36:11;;;;;;;16.90;4.50;;;;;;;15.06;30.82;100227.63;107506;1254;60625;-37
2023/10/11 11:38:46;;;;;;;24.10;5.50;;;;;;;14.97;31.08;100229.99;107535;1259;60440;-37
2023/10/11 11:41:17;;;;;;;15.80;4.30;;;;;;;14.86;31.28;100229.27;107511;1254;76053;-37
2023/10/11 11:43:48;;;;;;;47.40;7.80;;;;;;;14.77;31.39;100223.38;107529;1254;66709;-37
2023/10/11 11:46:16;;;;;;;12.30;3.60;;;;;;;14.71;30.94;100225.54;107510;1259;72826;-37
2023/10/11 11:48:43;;;;;;;10.80;3.60;;;;;;;14.63;30.40;100220.89;107522;1260;60421;-36
2023/10/11 11:51:13;;;;;;;14.00;3.70;;;;;;;14.54;30.53;100223.86;107548;1259;60425;-37
2023/10/11 11:53:44;;;;;;;11.20;2.90;;;;;;;14.45;30.40;100224.80;107558;1254;73907;-36
2023/10/11 11:56:12;;;;;;;11.00;3.50;;;;;;;14.33;30.63;100220.45;107535;1258;67561;-36
2023/10/11 11:58:45;;;;;;;16.90;4.20;;;;;;;14.27;30.96;100215.58;107506;1259;71425;-37
2023/10/11 12:01:17;;;;;;;22.20;4.40;;;;;;;14.36;30.55;100217.62;107529;1254;60421;-37
2023/10/11 12:03:53;;;;;;;14.80;3.90;;;;;;;14.60;30.26;100222.23;107520;1254;60418;-36
2023/10/11 12:06:22;;;;;;;11.10;3.50;;;;;;;14.82;29.89;100215.27;107540;1254;71676;-37
2023/10/11 12:08:58;;;;;;;11.90;4.00;;;;;;;15.03;30.07;100217.45;107706;1257;67609;-37
2023/10/11 12:11:30;;;;;;;18.10;4.30;;;;;;;15.29;29.52;100210.02;107496;1255;72654;-37
2023/10/11 12:14:00;;;;;;;7.60;3.60;;;;;;;15.60;29.34;100196.84;107519;1259;60513;-37
2023/10/11 12:16:28;;;;;;;10.20;3.60;;;;;;;16.01;29.13;100193.86;107567;1254;60395;-37
2023/10/11 12:18:59;;;;;;;14.00;3.70;;;;;;;16.40;28.76;100182.65;107549;1254;72718;-37
2023/10/11 12:21:28;;;;;;;9.20;3.50;;;;;;;16.72;27.93;100170.64;107511;1254;66587;-36
2023/10/11 12:23:57;;;;;;;6.20;2.90;;;;;;;16.97;27.99;100172.54;107512;1259;71507;-37
2023/10/11 12:26:33;;;;;;;9.30;3.70;;;;;;;17.20;27.53;100170.70;107458;1255;60701;-38
2023/10/11 12:29:04;;;;;;;9.30;4.00;;;;;;;17.24;27.50;100161.64;107511;1254;60418;-36
2023/10/11 12:31:32;;;;;;;9.60;3.90;;;;;;;17.12;27.47;100166.20;107474;1255;72745;-36
2023/10/11 12:33:59;;;;;;;8.30;3.40;;;;;;;17.01;27.31;100164.73;107525;1254;66759;-36
2023/10/11 12:36:28;;;;;;;12.50;3.40;;;;;;;16.89;27.27;100158.23;107482;1254;71479;-38